sensor_id;sensor_type;location;lat;lon;timestamp;pressure;altitude;pressure_sealevel;temperature;humidity
63281;BME280;49406;51.044;3.766;2023-12-28T00:01:03;101037.07;;;10.96;100.00
63281;BME280;49406;51.044;3.766;2023-12-28T00:03:38;101039.35;;;10.97;100.00
63281;BME280;49406;51.044;3.766;2023-12-28T00:06:14;101048.84;;;11.02;100.00
63281;BME280;49406;51.044;3.766;2023-12-28T00:08:48;101052.21;;;11.07;100.00
63281;BME280;49406;51.044;3.766;2023-12-28T00:11:23;101049.73;;;11.05;100.00
63281;BME280;49406;51.044;3.766;2023-12-28T00:13:57;101048.83;;;11.00;100.00
63281;BME280;49406;51.044;3.766;2023-12-28T00:16:33;101053.66;;;10.94;100.00
63281;BME280;49406;51.044;3.766;2023-12-28T00:19:10;101058.04;;;10.93;100.00
63281;BME280;49406;51.044;3.766;2023-12-28T00:21:44;101059.66;;;10.98;100.00
63281;BME280;49406;51.044;3.766;2023-12-28T00:24:21;101061.22;;;10.97;100.00
63281;BME280;49406;51.044;3.766;2023-12-28T00:26:56;101064.89;;;10.97;100.00
63281;BME280;49406;51.044;3.766;2023-12-28T00:29:30;101066.65;;;10.98;100.00
63281;BME280;49406;51.044;3.766;2023-12-28T00:32:06;101065.59;;;10.96;100.00
63281;BME280;49406;51.044;3.766;2023-12-28T00:34:41;101067.63;;;10.92;100.00
63281;BME280;49406;51.044;3.766;2023-12-28T00:37:15;101065.92;;;10.94;100.00
63281;BME280;49406;51.044;3.766;2023-12-28T00:39:51;101066.79;;;10.93;100.00
63281;BME280;49406;51.044;3.766;2023-12-28T00:42:26;101074.11;;;10.92;100.00
63281;BME280;49406;51.044;3.766;2023-12-28T00:45:00;101073.41;;;10.92;100.00
63281;BME280;49406;51.044;3.766;2023-12-28T00:47:35;101070.29;;;10.94;100.00
63281;BME280;49406;51.044;3.766;2023-12-28T00:50:10;101064.86;;;10.93;100.00
63281;BME280;49406;51.044;3.766;2023-12-28T00:52:48;101061.14;;;10.90;100.00
63281;BME280;49406;51.044;3.766;2023-12-28T00:55:22;101058.13;;;10.87;100.00
63281;BME280;49406;51.044;3.766;2023-12-28T00:57:57;101058.71;;;10.91;100.00
63281;BME280;49406;51.044;3.766;2023-12-28T01:00:31;101065.05;;;10.94;100.00
63281;BME280;49406;51.044;3.766;2023-12-28T01:03:06;101066.45;;;10.94;100.00
63281;BME280;49406;51.044;3.766;2023-12-28T01:05:41;101068.38;;;10.95;100.00
63281;BME280;49406;51.044;3.766;2023-12-28T01:08:15;101066.27;;;10.93;100.00
63281;BME280;49406;51.044;3.766;2023-12-28T01:10:50;101063.80;;;10.92;100.00
63281;BME280;49406;51.044;3.766;2023-12-28T01:13:25;101068.00;;;10.93;100.00
63281;BME280;49406;51.044;3.766;2023-12-28T01:15:59;101074.75;;;10.87;100.00
63281;BME280;49406;51.044;3.766;2023-12-28T01:18:34;101069.13;;;10.85;100.00
63281;BME280;49406;51.044;3.766;2023-12-28T01:21:08;101064.60;;;10.87;100.00
63281;BME280;49406;51.044;3.766;2023-12-28T01:23:43;101068.82;;;10.89;100.00
63281;BME280;49406;51.044;3.766;2023-12-28T01:26:19;101070.57;;;10.90;100.00
63281;BME280;49406;51.044;3.766;2023-12-28T01:28:53;101077.36;;;10.86;100.00
63281;BME280;49406;51.044;3.766;2023-12-28T01:31:27;101070.70;;;10.84;100.00
63281;BME280;49406;51.044;3.766;2023-12-28T01:34:02;101074.36;;;10.83;100.00
63281;BME280;49406;51.044;3.766;2023-12-28T01:36:37;101078.09;;;10.89;100.00
63281;BME280;49406;51.044;3.766;2023-12-28T01:39:13;101085.96;;;10.90;100.00
63281;BME280;49406;51.044;3.766;2023-12-28T01:41:48;101077.92;;;10.89;100.00
63281;BME280;49406;51.044;3.766;2023-12-28T01:44:23;101078.83;;;10.92;100.00
63281;BME280;49406;51.044;3.766;2023-12-28T01:46:57;101076.42;;;10.95;100.00
63281;BME280;49406;51.044;3.766;2023-12-28T01:49:32;101080.34;;;11.03;100.00
63281;BME280;49406;51.044;3.766;2023-12-28T01:52:08;101077.58;;;11.08;100.00
63281;BME280;49406;51.044;3.766;2023-12-28T01:54:42;101081.09;;;11.08;100.00
63281;BME280;49406;51.044;3.766;2023-12-28T01:57:18;101083.34;;;11.06;100.00
63281;BME280;49406;51.044;3.766;2023-12-28T01:59:53;101086.31;;;11.07;100.00
63281;BME280;49406;51.044;3.766;2023-12-28T02:02:27;101084.15;;;10.99;100.00
63281;BME280;49406;51.044;3.766;2023-12-28T02:05:03;101089.89;;;10.94;100.00
63281;BME280;49406;51.044;3.766;2023-12-28T02:07:38;101085.95;;;10.89;100.00
63281;BME280;49406;51.044;3.766;2023-12-28T02:10:12;101084.20;;;10.88;100.00
63281;BME280;49406;51.044;3.766;2023-12-28T02:12:47;101086.30;;;10.88;100.00
63281;BME280;49406;51.044;3.766;2023-12-28T02:15:23;101081.77;;;10.90;100.00
63281;BME280;49406;51.044;3.766;2023-12-28T02:18:02;101084.23;;;10.91;100.00
63281;BME280;49406;51.044;3.766;2023-12-28T02:20:40;101084.82;;;10.94;100.00
63281;BME280;49406;51.044;3.766;2023-12-28T02:23:15;101086.23;;;10.96;100.00
63281;BME280;49406;51.044;3.766;2023-12-28T02:25:50;101085.02;;;10.97;100.00
63281;BME280;49406;51.044;3.766;2023-12-28T02:28:24;101089.39;;;10.97;100.00
63281;BME280;49406;51.044;3.766;2023-12-28T02:31:00;101085.16;;;10.94;100.00
63281;BME280;49406;51.044;3.766;2023-12-28T02:33:41;101087.69;;;10.88;100.00
63281;BME280;49406;51.044;3.766;2023-12-28T02:36:21;101084.62;;;10.92;100.00
63281;BME280;49406;51.044;3.766;2023-12-28T02:38:58;101081.27;;;10.92;100.00
63281;BME280;49406;51.044;3.766;2023-12-28T02:41:36;101076.72;;;10.91;100.00
63281;BME280;49406;51.044;3.766;2023-12-28T02:44:11;101081.61;;;10.92;100.00
63281;BME280;49406;51.044;3.766;2023-12-28T02:46:47;101080.02;;;10.91;100.00
63281;BME280;49406;51.044;3.766;2023-12-28T02:49:21;101076.85;;;10.88;100.00
63281;BME280;49406;51.044;3.766;2023-12-28T02:51:56;101082.64;;;10.89;100.00
63281;BME280;49406;51.044;3.766;2023-12-28T02:54:30;101088.06;;;10.90;100.00
63281;BME280;49406;51.044;3.766;2023-12-28T02:57:05;101080.73;;;10.91;100.00
63281;BME280;49406;51.044;3.766;2023-12-28T02:59:40;101085.09;;;10.90;100.00
63281;BME280;49406;51.044;3.766;2023-12-28T03:02:14;101080.49;;;10.86;100.00
63281;BME280;49406;51.044;3.766;2023-12-28T03:04:49;101080.92;;;10.91;100.00
63281;BME280;49406;51.044;3.766;2023-12-28T03:07:24;101088.33;;;10.95;100.00
63281;BME280;49406;51.044;3.766;2023-12-28T03:09:58;101080.83;;;10.98;100.00
63281;BME280;49406;51.044;3.766;2023-12-28T03:12:33;101086.27;;;11.01;100.00
63281;BME280;49406;51.044;3.766;2023-12-28T03:15:08;101085.08;;;11.05;100.00
63281;BME280;49406;51.044;3.766;2023-12-28T03:17:43;101088.91;;;11.03;100.00
63281;BME280;49406;51.044;3.766;2023-12-28T03:20:18;101085.37;;;10.98;100.00
63281;BME280;49406;51.044;3.766;2023-12-28T03:22:52;101080.86;;;11.02;100.00
63281;BME280;49406;51.044;3.766;2023-12-28T03:25:27;101084.02;;;11.05;100.00
63281;BME280;49406;51.044;3.766;2023-12-28T03:28:02;101082.98;;;11.06;100.00
63281;BME280;49406;51.044;3.766;2023-12-28T03:30:37;101084.90;;;11.04;100.00
63281;BME280;49406;51.044;3.766;2023-12-28T03:33:11;101083.52;;;11.06;100.00
63281;BME280;49406;51.044;3.766;2023-12-28T03:35:46;101085.41;;;11.03;100.00
63281;BME280;49406;51.044;3.766;2023-12-28T03:38:20;101084.88;;;11.01;100.00
63281;BME280;49406;51.044;3.766;2023-12-28T03:40:55;101085.20;;;10.98;100.00
63281;BME280;49406;51.044;3.766;2023-12-28T03:43:30;101085.11;;;10.91;100.00
63281;BME280;49406;51.044;3.766;2023-12-28T03:46:04;101085.14;;;10.92;100.00
63281;BME280;49406;51.044;3.766;2023-12-28T03:48:39;101092.88;;;10.96;100.00
63281;BME280;49406;51.044;3.766;2023-12-28T03:51:16;101081.17;;;10.97;100.00
63281;BME280;49406;51.044;3.766;2023-12-28T03:53:50;101093.10;;;11.02;100.00
63281;BME280;49406;51.044;3.766;2023-12-28T03:56:26;101094.17;;;11.05;100.00
63281;BME280;49406;51.044;3.766;2023-12-28T03:59:01;101098.90;;;11.04;100.00
63281;BME280;49406;51.044;3.766;2023-12-28T04:01:36;101100.64;;;11.04;100.00
63281;BME280;49406;51.044;3.766;2023-12-28T04:04:10;101107.94;;;11.15;100.00
63281;BME280;49406;51.044;3.766;2023-12-28T04:06:45;101104.81;;;11.18;100.00
63281;BME280;49406;51.044;3.766;2023-12-28T04:09:19;101108.35;;;11.22;100.00
63281;BME280;49406;51.044;3.766;2023-12-28T04:11:54;101114.00;;;11.26;100.00
63281;BME280;49406;51.044;3.766;2023-12-28T04:14:28;101114.02;;;11.28;100.00
63281;BME280;49406;51.044;3.766;2023-12-28T04:17:03;101119.48;;;11.33;100.00
63281;BME280;49406;51.044;3.766;2023-12-28T04:19:37;101111.98;;;11.34;100.00
63281;BME280;49406;51.044;3.766;2023-12-28T04:22:12;101105.15;;;11.35;100.00
63281;BME280;49406;51.044;3.766;2023-12-28T04:24:47;101114.06;;;11.33;100.00
63281;BME280;49406;51.044;3.766;2023-12-28T04:27:21;101111.23;;;11.27;100.00
63281;BME280;49406;51.044;3.766;2023-12-28T04:29:55;101103.48;;;11.24;100.00
63281;BME280;49406;51.044;3.766;2023-12-28T04:32:30;101093.42;;;11.16;100.00
63281;BME280;49406;51.044;3.766;2023-12-28T04:35:05;101102.99;;;11.10;100.00
63281;BME280;49406;51.044;3.766;2023-12-28T04:37:40;101111.34;;;11.07;100.00
63281;BME280;49406;51.044;3.766;2023-12-28T04:40:15;101116.73;;;11.03;100.00
63281;BME280;49406;51.044;3.766;2023-12-28T04:42:50;101124.94;;;11.01;100.00
63281;BME280;49406;51.044;3.766;2023-12-28T04:45:24;101128.89;;;11.10;100.00
63281;BME280;49406;51.044;3.766;2023-12-28T04:48:00;101131.41;;;11.18;100.00
63281;BME280;49406;51.044;3.766;2023-12-28T04:50:35;101132.69;;;11.23;100.00
63281;BME280;49406;51.044;3.766;2023-12-28T04:53:10;101127.14;;;11.27;100.00
63281;BME280;49406;51.044;3.766;2023-12-28T04:55:44;101126.98;;;11.29;100.00
63281;BME280;49406;51.044;3.766;2023-12-28T04:58:19;101125.77;;;11.31;100.00
63281;BME280;49406;51.044;3.766;2023-12-28T05:00:53;101123.83;;;11.27;100.00
63281;BME280;49406;51.044;3.766;2023-12-28T05:03:28;101112.39;;;11.24;100.00
63281;BME280;49406;51.044;3.766;2023-12-28T05:06:04;101105.55;;;11.23;100.00
63281;BME280;49406;51.044;3.766;2023-12-28T05:08:39;101098.32;;;11.15;100.00
63281;BME280;49406;51.044;3.766;2023-12-28T05:11:13;101093.70;;;11.07;100.00
63281;BME280;49406;51.044;3.766;2023-12-28T05:13:48;101101.48;;;11.01;100.00
63281;BME280;49406;51.044;3.766;2023-12-28T05:16:21;101098.47;;;10.96;100.00
63281;BME280;49406;51.044;3.766;2023-12-28T05:18:55;101101.94;;;10.92;100.00
63281;BME280;49406;51.044;3.766;2023-12-28T05:21:30;101105.83;;;10.81;100.00
63281;BME280;49406;51.044;3.766;2023-12-28T05:24:05;101099.20;;;10.83;100.00
63281;BME280;49406;51.044;3.766;2023-12-28T05:26:40;101091.71;;;10.87;100.00
63281;BME280;49406;51.044;3.766;2023-12-28T05:29:14;101096.98;;;10.90;100.00
63281;BME280;49406;51.044;3.766;2023-12-28T05:31:49;101094.58;;;10.92;100.00
63281;BME280;49406;51.044;3.766;2023-12-28T05:34:23;101097.23;;;10.95;100.00
63281;BME280;49406;51.044;3.766;2023-12-28T05:36:58;101104.25;;;10.97;100.00
63281;BME280;49406;51.044;3.766;2023-12-28T05:39:32;101098.70;;;11.03;100.00
63281;BME280;49406;51.044;3.766;2023-12-28T05:42:07;101102.78;;;11.07;100.00
63281;BME280;49406;51.044;3.766;2023-12-28T05:44:42;101106.69;;;11.12;100.00
63281;BME280;49406;51.044;3.766;2023-12-28T05:47:17;101108.40;;;11.09;100.00
63281;BME280;49406;51.044;3.766;2023-12-28T05:49:52;101104.26;;;11.14;100.00
63281;BME280;49406;51.044;3.766;2023-12-28T05:52:26;101112.34;;;11.19;100.00
63281;BME280;49406;51.044;3.766;2023-12-28T05:55:01;101114.79;;;11.18;100.00
63281;BME280;49406;51.044;3.766;2023-12-28T05:57:35;101119.84;;;11.14;100.00
63281;BME280;49406;51.044;3.766;2023-12-28T06:00:11;101118.55;;;11.09;100.00
63281;BME280;49406;51.044;3.766;2023-12-28T06:02:46;101119.20;;;11.06;100.00
63281;BME280;49406;51.044;3.766;2023-12-28T06:05:24;101113.56;;;11.02;100.00
63281;BME280;49406;51.044;3.766;2023-12-28T06:07:59;101114.75;;;10.97;100.00
63281;BME280;49406;51.044;3.766;2023-12-28T06:10:34;101110.63;;;10.90;100.00
63281;BME280;49406;51.044;3.766;2023-12-28T06:13:08;101123.88;;;10.85;100.00
63281;BME280;49406;51.044;3.766;2023-12-28T06:15:43;101122.77;;;10.80;100.00
63281;BME280;49406;51.044;3.766;2023-12-28T06:18:17;101128.44;;;10.72;100.00
63281;BME280;49406;51.044;3.766;2023-12-28T06:20:52;101129.30;;;10.71;100.00
63281;BME280;49406;51.044;3.766;2023-12-28T06:23:26;101134.50;;;10.67;100.00
63281;BME280;49406;51.044;3.766;2023-12-28T06:26:05;101130.48;;;10.66;100.00
63281;BME280;49406;51.044;3.766;2023-12-28T06:28:40;101134.52;;;10.67;100.00
63281;BME280;49406;51.044;3.766;2023-12-28T06:31:15;101133.78;;;10.65;100.00
63281;BME280;49406;51.044;3.766;2023-12-28T06:33:49;101143.57;;;10.65;100.00
63281;BME280;49406;51.044;3.766;2023-12-28T06:36:24;101152.66;;;10.65;100.00
63281;BME280;49406;51.044;3.766;2023-12-28T06:38:58;101157.80;;;10.56;100.00
63281;BME280;49406;51.044;3.766;2023-12-28T06:41:33;101158.08;;;10.51;100.00
63281;BME280;49406;51.044;3.766;2023-12-28T06:44:08;101163.20;;;10.55;100.00
63281;BME280;49406;51.044;3.766;2023-12-28T06:46:42;101159.16;;;10.55;100.00
63281;BME280;49406;51.044;3.766;2023-12-28T06:49:17;101159.42;;;10.59;100.00
63281;BME280;49406;51.044;3.766;2023-12-28T06:51:52;101166.58;;;10.59;100.00
63281;BME280;49406;51.044;3.766;2023-12-28T06:54:26;101161.39;;;10.50;100.00
63281;BME280;49406;51.044;3.766;2023-12-28T06:57:01;101172.58;;;10.50;100.00
63281;BME280;49406;51.044;3.766;2023-12-28T06:59:36;101181.19;;;10.54;100.00
63281;BME280;49406;51.044;3.766;2023-12-28T07:02:10;101177.98;;;10.49;100.00
63281;BME280;49406;51.044;3.766;2023-12-28T07:04:45;101187.92;;;10.46;100.00
63281;BME280;49406;51.044;3.766;2023-12-28T07:07:19;101186.25;;;10.41;100.00
63281;BME280;49406;51.044;3.766;2023-12-28T07:09:54;101189.49;;;10.47;100.00
63281;BME280;49406;51.044;3.766;2023-12-28T07:12:28;101192.19;;;10.52;100.00
63281;BME280;49406;51.044;3.766;2023-12-28T07:15:03;101196.27;;;10.58;100.00
63281;BME280;49406;51.044;3.766;2023-12-28T07:17:38;101196.22;;;10.67;100.00
63281;BME280;49406;51.044;3.766;2023-12-28T07:20:13;101197.05;;;10.75;100.00
63281;BME280;49406;51.044;3.766;2023-12-28T07:22:48;101194.46;;;10.78;100.00
63281;BME280;49406;51.044;3.766;2023-12-28T07:25:23;101199.31;;;10.76;100.00
63281;BME280;49406;51.044;3.766;2023-12-28T07:27:58;101198.73;;;10.84;100.00
63281;BME280;49406;51.044;3.766;2023-12-28T07:30:32;101202.62;;;10.88;100.00
63281;BME280;49406;51.044;3.766;2023-12-28T07:33:07;101204.56;;;10.90;100.00
63281;BME280;49406;51.044;3.766;2023-12-28T07:35:42;101203.67;;;10.89;100.00
63281;BME280;49406;51.044;3.766;2023-12-28T07:38:16;101199.27;;;10.85;100.00
63281;BME280;49406;51.044;3.766;2023-12-28T07:40:51;101199.48;;;10.89;100.00
63281;BME280;49406;51.044;3.766;2023-12-28T07:43:26;101201.40;;;10.89;100.00
63281;BME280;49406;51.044;3.766;2023-12-28T07:46:01;101202.39;;;10.82;100.00
63281;BME280;49406;51.044;3.766;2023-12-28T07:48:35;101203.73;;;10.78;100.00
63281;BME280;49406;51.044;3.766;2023-12-28T07:51:12;101208.20;;;10.74;100.00
63281;BME280;49406;51.044;3.766;2023-12-28T07:53:47;101210.80;;;10.72;100.00
63281;BME280;49406;51.044;3.766;2023-12-28T07:56:21;101216.54;;;10.69;100.00
63281;BME280;49406;51.044;3.766;2023-12-28T07:58:56;101216.67;;;10.66;100.00
63281;BME280;49406;51.044;3.766;2023-12-28T08:01:30;101217.45;;;10.58;100.00
63281;BME280;49406;51.044;3.766;2023-12-28T08:04:06;101218.04;;;10.51;100.00
63281;BME280;49406;51.044;3.766;2023-12-28T08:06:41;101220.88;;;10.54;100.00
63281;BME280;49406;51.044;3.766;2023-12-28T08:09:16;101218.08;;;10.54;100.00
63281;BME280;49406;51.044;3.766;2023-12-28T08:11:50;101218.62;;;10.56;100.00
63281;BME280;49406;51.044;3.766;2023-12-28T08:14:25;101216.19;;;10.57;100.00
63281;BME280;49406;51.044;3.766;2023-12-28T08:16:59;101214.79;;;10.56;100.00
63281;BME280;49406;51.044;3.766;2023-12-28T08:19:34;101220.51;;;10.65;100.00
63281;BME280;49406;51.044;3.766;2023-12-28T08:22:09;101228.60;;;10.69;100.00
63281;BME280;49406;51.044;3.766;2023-12-28T08:24:44;101228.96;;;10.70;100.00
63281;BME280;49406;51.044;3.766;2023-12-28T08:27:18;101233.86;;;10.71;100.00
63281;BME280;49406;51.044;3.766;2023-12-28T08:29:53;101236.47;;;10.69;100.00
63281;BME280;49406;51.044;3.766;2023-12-28T08:32:28;101235.54;;;10.77;100.00
63281;BME280;49406;51.044;3.766;2023-12-28T08:35:02;101238.06;;;10.82;100.00
63281;BME280;49406;51.044;3.766;2023-12-28T08:37:37;101243.41;;;10.90;100.00
63281;BME280;49406;51.044;3.766;2023-12-28T08:40:13;101245.80;;;11.00;100.00
63281;BME280;49406;51.044;3.766;2023-12-28T08:42:47;101250.10;;;11.07;100.00
63281;BME280;49406;51.044;3.766;2023-12-28T08:45:22;101251.85;;;11.08;100.00
63281;BME280;49406;51.044;3.766;2023-12-28T08:47:57;101251.64;;;11.18;100.00
63281;BME280;49406;51.044;3.766;2023-12-28T08:50:32;101254.05;;;11.28;100.00
63281;BME280;49406;51.044;3.766;2023-12-28T08:53:06;101256.70;;;11.31;100.00
63281;BME280;49406;51.044;3.766;2023-12-28T08:55:41;101258.79;;;11.30;100.00
63281;BME280;49406;51.044;3.766;2023-12-28T08:58:15;101253.88;;;11.29;100.00
63281;BME280;49406;51.044;3.766;2023-12-28T09:00:50;101255.13;;;11.31;100.00
63281;BME280;49406;51.044;3.766;2023-12-28T09:03:25;101261.09;;;11.33;100.00
63281;BME280;49406;51.044;3.766;2023-12-28T09:05:59;101268.76;;;11.29;100.00
63281;BME280;49406;51.044;3.766;2023-12-28T09:08:34;101275.75;;;11.28;100.00
63281;BME280;49406;51.044;3.766;2023-12-28T09:11:11;101273.36;;;11.34;100.00
63281;BME280;49406;51.044;3.766;2023-12-28T09:13:46;101276.55;;;11.39;100.00
63281;BME280;49406;51.044;3.766;2023-12-28T09:16:20;101277.69;;;11.44;100.00
63281;BME280;49406;51.044;3.766;2023-12-28T09:18:55;101275.63;;;11.47;100.00
63281;BME280;49406;51.044;3.766;2023-12-28T09:21:30;101268.25;;;11.46;100.00
63281;BME280;49406;51.044;3.766;2023-12-28T09:24:05;101267.95;;;11.52;100.00
63281;BME280;49406;51.044;3.766;2023-12-28T09:26:40;101264.98;;;11.51;100.00
63281;BME280;49406;51.044;3.766;2023-12-28T09:29:15;101265.14;;;11.50;100.00
63281;BME280;49406;51.044;3.766;2023-12-28T09:31:50;101274.23;;;11.48;100.00
63281;BME280;49406;51.044;3.766;2023-12-28T09:34:24;101277.45;;;11.54;100.00
63281;BME280;49406;51.044;3.766;2023-12-28T09:36:59;101275.52;;;11.56;100.00
63281;BME280;49406;51.044;3.766;2023-12-28T09:39:34;101283.41;;;11.56;100.00
63281;BME280;49406;51.044;3.766;2023-12-28T09:42:16;101293.05;;;11.57;100.00
63281;BME280;49406;51.044;3.766;2023-12-28T09:44:51;101291.38;;;11.63;100.00
63281;BME280;49406;51.044;3.766;2023-12-28T09:47:26;101297.06;;;11.70;100.00
63281;BME280;49406;51.044;3.766;2023-12-28T09:50:01;101296.90;;;11.72;100.00
63281;BME280;49406;51.044;3.766;2023-12-28T09:52:36;101305.81;;;11.70;100.00
63281;BME280;49406;51.044;3.766;2023-12-28T09:55:10;101309.08;;;11.78;100.00
63281;BME280;49406;51.044;3.766;2023-12-28T09:57:46;101311.96;;;11.85;100.00
63281;BME280;49406;51.044;3.766;2023-12-28T10:00:21;101316.34;;;11.84;100.00
63281;BME280;49406;51.044;3.766;2023-12-28T10:02:56;101318.25;;;11.84;100.00
63281;BME280;49406;51.044;3.766;2023-12-28T10:05:31;101320.83;;;11.95;100.00
63281;BME280;49406;51.044;3.766;2023-12-28T10:08:07;101310.23;;;12.06;100.00
63281;BME280;49406;51.044;3.766;2023-12-28T10:10:42;101315.69;;;12.08;100.00
63281;BME280;49406;51.044;3.766;2023-12-28T10:13:17;101313.61;;;12.09;100.00
63281;BME280;49406;51.044;3.766;2023-12-28T10:15:51;101309.78;;;12.11;100.00
63281;BME280;49406;51.044;3.766;2023-12-28T10:18:26;101297.92;;;12.19;100.00
63281;BME280;49406;51.044;3.766;2023-12-28T10:21:01;101298.45;;;12.18;100.00
63281;BME280;49406;51.044;3.766;2023-12-28T10:23:36;101307.02;;;12.15;100.00
63281;BME280;49406;51.044;3.766;2023-12-28T10:26:10;101302.09;;;12.14;100.00
63281;BME280;49406;51.044;3.766;2023-12-28T10:28:45;101303.37;;;12.20;100.00
63281;BME280;49406;51.044;3.766;2023-12-28T10:31:22;101301.67;;;12.27;100.00
63281;BME280;49406;51.044;3.766;2023-12-28T10:33:59;101304.09;;;12.24;100.00
63281;BME280;49406;51.044;3.766;2023-12-28T10:36:35;101302.73;;;12.27;100.00
63281;BME280;49406;51.044;3.766;2023-12-28T10:39:13;101305.26;;;12.37;100.00
63281;BME280;49406;51.044;3.766;2023-12-28T10:41:51;101301.95;;;12.41;100.00
63281;BME280;49406;51.044;3.766;2023-12-28T10:44:29;101303.86;;;12.38;100.00
63281;BME280;49406;51.044;3.766;2023-12-28T10:47:08;101295.77;;;12.31;100.00
63281;BME280;49406;51.044;3.766;2023-12-28T10:49:49;101284.91;;;12.36;100.00
63281;BME280;49406;51.044;3.766;2023-12-28T10:52:28;101282.63;;;12.34;100.00
63281;BME280;49406;51.044;3.766;2023-12-28T10:55:18;101275.26;;;12.33;100.00
63281;BME280;49406;51.044;3.766;2023-12-28T10:58:02;101272.08;;;12.30;100.00
63281;BME280;49406;51.044;3.766;2023-12-28T11:00:43;101260.17;;;12.32;100.00
63281;BME280;49406;51.044;3.766;2023-12-28T11:03:24;101255.27;;;12.32;100.00
63281;BME280;49406;51.044;3.766;2023-12-28T11:06:03;101257.17;;;12.28;100.00
63281;BME280;49406;51.044;3.766;2023-12-28T11:08:40;101251.84;;;12.22;100.00
63281;BME280;49406;51.044;3.766;2023-12-28T11:11:16;101248.70;;;12.23;100.00
63281;BME280;49406;51.044;3.766;2023-12-28T11:13:51;101249.11;;;12.31;100.00
63281;BME280;49406;51.044;3.766;2023-12-28T11:16:26;101240.64;;;12.25;100.00
63281;BME280;49406;51.044;3.766;2023-12-28T11:19:02;101244.32;;;12.25;100.00
63281;BME280;49406;51.044;3.766;2023-12-28T11:21:37;101241.04;;;12.29;100.00
63281;BME280;49406;51.044;3.766;2023-12-28T11:24:12;101242.46;;;12.33;100.00
63281;BME280;49406;51.044;3.766;2023-12-28T11:26:53;101247.05;;;12.36;100.00
63281;BME280;49406;51.044;3.766;2023-12-28T11:29:30;101235.45;;;12.32;100.00
63281;BME280;49406;51.044;3.766;2023-12-28T11:32:06;101242.13;;;12.35;100.00
63281;BME280;49406;51.044;3.766;2023-12-28T11:34:42;101243.40;;;12.42;100.00
63281;BME280;49406;51.044;3.766;2023-12-28T11:37:18;101241.64;;;12.40;100.00
63281;BME280;49406;51.044;3.766;2023-12-28T11:39:52;101243.70;;;12.33;100.00
63281;BME280;49406;51.044;3.766;2023-12-28T11:42:28;101248.08;;;12.34;100.00
63281;BME280;49406;51.044;3.766;2023-12-28T11:45:02;101239.16;;;12.38;100.00
63281;BME280;49406;51.044;3.766;2023-12-28T11:47:37;101234.45;;;12.42;100.00
63281;BME280;49406;51.044;3.766;2023-12-28T11:50:10;101232.86;;;12.40;100.00
63281;BME280;49406;51.044;3.766;2023-12-28T11:52:50;101231.81;;;12.40;100.00
63281;BME280;49406;51.044;3.766;2023-12-28T11:55:25;101232.75;;;12.47;100.00
63281;BME280;49406;51.044;3.766;2023-12-28T11:58:00;101233.83;;;12.53;100.00
63281;BME280;49406;51.044;3.766;2023-12-28T12:00:34;101233.49;;;12.55;100.00
63281;BME280;49406;51.044;3.766;2023-12-28T12:03:12;101228.05;;;12.54;100.00
63281;BME280;49406;51.044;3.766;2023-12-28T12:05:47;101220.70;;;12.57;100.00
63281;BME280;49406;51.044;3.766;2023-12-28T12:08:22;101220.24;;;12.67;100.00
63281;BME280;49406;51.044;3.766;2023-12-28T12:11:04;101213.40;;;12.67;100.00
63281;BME280;49406;51.044;3.766;2023-12-28T12:13:40;101212.52;;;12.66;100.00
63281;BME280;49406;51.044;3.766;2023-12-28T12:16:16;101204.96;;;12.64;100.00
63281;BME280;49406;51.044;3.766;2023-12-28T12:18:51;101209.91;;;12.73;100.00
63281;BME280;49406;51.044;3.766;2023-12-28T12:21:26;101207.45;;;12.72;100.00
63281;BME280;49406;51.044;3.766;2023-12-28T12:24:01;101198.48;;;12.66;100.00
63281;BME280;49406;51.044;3.766;2023-12-28T12:26:36;101195.33;;;12.65;100.00
63281;BME280;49406;51.044;3.766;2023-12-28T12:29:10;101187.96;;;12.66;100.00
63281;BME280;49406;51.044;3.766;2023-12-28T12:31:46;101188.66;;;12.65;100.00
63281;BME280;49406;51.044;3.766;2023-12-28T12:34:22;101189.68;;;12.60;100.00
63281;BME280;49406;51.044;3.766;2023-12-28T12:36:57;101180.52;;;12.55;100.00
63281;BME280;49406;51.044;3.766;2023-12-28T12:39:32;101180.89;;;12.57;100.00
63281;BME280;49406;51.044;3.766;2023-12-28T12:42:07;101183.23;;;12.64;100.00
63281;BME280;49406;51.044;3.766;2023-12-28T12:44:41;101185.15;;;12.64;100.00
63281;BME280;49406;51.044;3.766;2023-12-28T12:47:16;101178.83;;;12.65;100.00
63281;BME280;49406;51.044;3.766;2023-12-28T12:49:52;101182.17;;;12.68;100.00
63281;BME280;49406;51.044;3.766;2023-12-28T12:52:28;101179.79;;;12.79;100.00
63281;BME280;49406;51.044;3.766;2023-12-28T12:55:03;101182.77;;;12.81;100.00
63281;BME280;49406;51.044;3.766;2023-12-28T12:57:38;101184.35;;;12.79;100.00
63281;BME280;49406;51.044;3.766;2023-12-28T13:00:13;101174.48;;;12.74;100.00
63281;BME280;49406;51.044;3.766;2023-12-28T13:02:48;101173.77;;;12.73;100.00
63281;BME280;49406;51.044;3.766;2023-12-28T13:05:25;101172.73;;;12.75;100.00
63281;BME280;49406;51.044;3.766;2023-12-28T13:07:59;101166.39;;;12.69;100.00
63281;BME280;49406;51.044;3.766;2023-12-28T13:10:34;101169.01;;;12.64;100.00
63281;BME280;49406;51.044;3.766;2023-12-28T13:13:09;101165.66;;;12.61;100.00
63281;BME280;49406;51.044;3.766;2023-12-28T13:15:44;101172.70;;;12.67;100.00
63281;BME280;49406;51.044;3.766;2023-12-28T13:18:18;101177.96;;;12.69;100.00
63281;BME280;49406;51.044;3.766;2023-12-28T13:20:53;101179.72;;;12.66;100.00